createdAt,value
2018-11-22T12:18:07.732Z,7.55
2018-11-22T12:20:37.421Z,6.15
2018-11-22T12:23:07.903Z,6.53
2018-11-22T12:25:37.639Z,7.25
2018-11-22T12:28:07.424Z,8.10
2018-11-22T12:30:36.783Z,8.03
2018-11-22T12:33:08.823Z,7.20
2018-11-22T12:35:47.122Z,7.22
2018-11-22T12:38:21.672Z,5.58
2018-11-22T12:40:51.466Z,8.28
2018-11-22T12:43:21.527Z,6.35
2018-11-22T12:45:50.656Z,6.53
2018-11-22T12:48:19.743Z,6.45
2018-11-22T12:50:49.623Z,6.53
2018-11-22T12:53:20.316Z,7.25
2018-11-22T12:55:49.639Z,6.58
2018-11-22T12:58:18.719Z,7.17
2018-11-22T13:00:48.388Z,6.25
2018-11-22T13:03:17.463Z,5.65
2018-11-22T13:05:46.535Z,6.22
2018-11-22T13:08:17.406Z,7.60
2018-11-22T13:10:46.532Z,6.62
2018-11-22T13:13:16.071Z,6.05
2018-11-22T13:15:45.135Z,6.35
2018-11-22T13:18:14.817Z,6.17
2018-11-22T13:20:44.809Z,6.42
2018-11-22T13:23:13.922Z,5.60
2018-11-22T13:25:43.074Z,6.72
2018-11-22T13:28:12.149Z,6.45
2018-11-22T13:30:42.731Z,5.25
2018-11-22T13:33:12.305Z,5.50
2018-11-22T13:35:41.408Z,5.37
2018-11-22T13:38:11.554Z,7.53
2018-11-22T13:40:40.633Z,6.10
2018-11-22T13:43:10.255Z,5.55
2018-11-22T13:45:39.547Z,5.75
2018-11-22T13:48:09.568Z,5.90
2018-11-22T13:50:42.117Z,6.25
2018-11-22T13:53:08.687Z,5.87
2018-11-22T13:55:37.769Z,5.42
2018-11-22T13:58:06.883Z,5.65
2018-11-22T14:00:36.688Z,5.60
2018-11-22T14:03:07.786Z,5.92
2018-11-22T14:05:36.832Z,5.40
2018-11-22T14:08:06.747Z,5.80
2018-11-22T14:10:35.793Z,5.58
2018-11-22T14:13:05.614Z,5.58
2018-11-22T14:15:34.711Z,5.05
2018-11-22T14:18:05.008Z,5.95
2018-11-22T14:20:35.892Z,5.28
2018-11-22T14:23:05.423Z,5.20
2018-11-22T14:25:36.473Z,5.37
2018-11-22T14:28:06.717Z,5.00
2018-11-22T14:30:38.289Z,5.62
2018-11-22T14:33:07.946Z,5.15
2018-11-22T14:35:37.687Z,5.72
2018-11-22T14:38:06.783Z,4.45
2018-11-22T14:40:36.363Z,4.90
2018-11-22T14:43:06.455Z,5.60
2018-11-22T14:45:35.515Z,6.17
2018-11-22T14:48:05.030Z,5.33
2018-11-22T14:50:36.196Z,5.37
2018-11-22T14:53:09.459Z,5.12
2018-11-22T14:55:38.851Z,6.15
2018-11-22T14:58:08.673Z,5.85
2018-11-22T15:00:39.899Z,7.55
2018-11-22T15:03:09.218Z,4.83
2018-11-22T15:05:38.551Z,7.40
2018-11-22T15:08:08.282Z,12.13
2018-11-22T15:10:37.883Z,12.07
2018-11-22T15:13:08.120Z,13.43
2018-11-22T15:15:37.613Z,10.85
2018-11-22T15:18:07.050Z,9.15
2018-11-22T15:20:37.027Z,12.55
2018-11-22T15:23:06.431Z,12.37
2018-11-22T15:25:36.446Z,11.12
2018-11-22T15:28:06.952Z,11.48
2018-11-22T15:30:36.871Z,13.78
2018-11-22T15:33:06.742Z,12.13
2018-11-22T15:35:35.916Z,16.95
2018-11-22T15:38:09.477Z,16.45
2018-11-22T15:40:38.739Z,13.72
2018-11-22T15:43:08.934Z,11.40
2018-11-22T15:45:38.926Z,17.10
2018-11-22T15:48:09.580Z,11.20
2018-11-22T15:50:39.239Z,12.15
2018-11-22T15:53:09.096Z,8.50
2018-11-22T15:55:38.354Z,10.63
2018-11-22T15:58:08.241Z,9.70
2018-11-22T16:00:38.371Z,11.08
2018-11-22T16:03:08.043Z,10.30
2018-11-22T16:05:37.286Z,11.73
2018-11-22T16:08:06.718Z,8.35
2018-11-22T16:10:37.265Z,10.78
2018-11-22T16:13:09.975Z,10.40
2018-11-22T16:15:44.159Z,11.63
2018-11-22T16:18:13.518Z,12.30
2018-11-22T16:20:44.463Z,9.93
2018-11-22T16:23:14.783Z,9.33
2018-11-22T16:25:45.792Z,8.05
2018-11-22T16:28:15.423Z,10.85
2018-11-22T16:30:45.394Z,9.15
2018-11-22T16:33:18.703Z,7.50
2018-11-22T16:35:47.847Z,13.50
2018-11-22T16:38:17.084Z,14.15
2018-11-22T16:40:46.176Z,10.18
2018-11-22T16:43:16.820Z,13.98
2018-11-22T16:45:47.155Z,11.40
2018-11-22T16:48:16.849Z,8.00
2018-11-22T16:50:46.095Z,11.55
2018-11-22T16:53:16.782Z,9.08
2018-11-22T16:55:46.083Z,12.98
2018-11-22T16:58:16.258Z,11.10
2018-11-22T17:00:46.025Z,8.90
2018-11-22T17:03:15.123Z,10.18
2018-11-22T17:05:44.793Z,13.32
2018-11-22T17:08:13.903Z,9.45
2018-11-22T17:10:44.563Z,7.75
2018-11-22T17:13:14.239Z,9.03
2018-11-22T17:15:45.084Z,10.75
2018-11-22T17:18:14.243Z,7.78
2018-11-22T17:20:43.349Z,10.03
2018-11-22T17:23:13.241Z,11.30
2018-11-22T17:25:42.423Z,8.50
2018-11-22T17:28:12.385Z,11.88
2018-11-22T17:30:43.774Z,25.75
2018-11-22T17:33:14.358Z,18.85
2018-11-22T17:35:43.517Z,19.35
2018-11-22T17:38:13.491Z,13.90
2018-11-22T17:40:44.414Z,15.88
2018-11-22T17:43:14.888Z,13.35
2018-11-22T17:45:45.435Z,13.68
2018-11-22T17:48:14.571Z,12.93
2018-11-22T17:50:45.075Z,13.75
2018-11-22T17:53:15.290Z,11.78
2018-11-22T17:55:45.103Z,15.10
2018-11-22T17:58:14.713Z,13.60
2018-11-22T18:00:49.143Z,15.53
2018-11-22T18:03:18.198Z,12.35
2018-11-22T18:05:47.662Z,17.65
2018-11-22T18:08:16.885Z,13.18
2018-11-22T18:10:47.130Z,10.55
2018-11-22T18:13:17.391Z,15.93
2018-11-22T18:15:51.792Z,17.92
2018-11-22T18:18:20.867Z,10.63
2018-11-22T18:20:49.972Z,12.73
2018-11-22T18:23:20.128Z,15.55
2018-11-22T18:25:51.211Z,10.25
2018-11-22T18:28:22.035Z,11.20
2018-11-22T18:30:52.621Z,17.27
2018-11-22T18:33:22.615Z,13.78
2018-11-22T18:35:51.702Z,14.28
2018-11-22T18:38:21.515Z,15.28
2018-11-22T18:40:51.526Z,12.58
2018-11-22T18:43:22.431Z,11.20
2018-11-22T18:45:52.260Z,12.73
2018-11-22T18:48:21.739Z,12.88
2018-11-22T18:50:50.987Z,26.62
2018-11-22T18:53:21.435Z,28.67
2018-11-22T18:55:50.611Z,19.77
2018-11-22T18:58:19.694Z,22.95
2018-11-22T19:00:49.630Z,22.80
2018-11-22T19:03:19.821Z,29.40
2018-11-22T19:05:48.973Z,30.43
2018-11-22T19:08:18.102Z,28.95
2018-11-22T19:10:48.118Z,36.28
2018-11-22T19:13:18.768Z,24.52
2018-11-22T19:15:48.841Z,31.60
2018-11-22T19:18:18.452Z,31.00
2018-11-22T19:20:47.563Z,24.95
2018-11-22T19:23:17.415Z,26.93
2018-11-22T19:25:47.273Z,28.92
2018-11-22T19:28:18.843Z,39.90
2018-11-22T19:30:48.764Z,28.38
2018-11-22T19:33:20.102Z,35.38
2018-11-22T19:35:51.428Z,41.88
2018-11-22T19:38:20.758Z,35.38
2018-11-22T19:40:50.054Z,30.30
2018-11-22T19:43:19.583Z,33.38
2018-11-22T19:45:49.792Z,33.50
2018-11-22T19:48:19.278Z,25.68
2018-11-22T19:50:48.863Z,27.27
2018-11-22T19:53:18.655Z,23.40
2018-11-22T19:55:47.787Z,23.20
2018-11-22T19:58:17.538Z,25.55
2018-11-22T20:00:47.140Z,46.10
2018-11-22T20:03:16.248Z,35.20
2018-11-22T20:05:45.677Z,48.02
2018-11-22T20:08:17.490Z,48.83
2018-11-22T20:10:48.386Z,40.55
2018-11-22T20:13:18.638Z,37.42
2018-11-22T20:15:48.999Z,32.93
2018-11-22T20:18:18.259Z,36.13
2018-11-22T20:20:49.992Z,27.73
2018-11-22T20:23:21.582Z,28.98
2018-11-22T20:25:47.519Z,28.32
2018-11-22T20:28:17.640Z,45.78
2018-11-22T20:30:47.447Z,39.73
2018-11-22T20:33:17.277Z,30.37
2018-11-22T20:35:46.720Z,28.25
2018-11-22T20:38:15.916Z,30.15
2018-11-22T20:40:45.862Z,32.58
2018-11-22T20:43:15.887Z,21.30
2018-11-22T20:45:45.194Z,25.23
2018-11-22T20:48:15.952Z,25.35
2018-11-22T20:50:45.251Z,23.98
2018-11-22T20:53:14.360Z,28.57
2018-11-22T20:55:43.593Z,21.95
2018-11-22T20:58:13.795Z,27.32
2018-11-22T21:00:44.784Z,25.72
2018-11-22T21:03:13.876Z,22.10
2018-11-22T21:05:43.923Z,24.92
2018-11-22T21:08:13.192Z,23.35
2018-11-22T21:10:43.013Z,17.42
2018-11-22T21:13:12.731Z,19.52
2018-11-22T21:15:41.920Z,18.42
2018-11-22T21:18:13.560Z,22.17
2018-11-22T21:20:42.904Z,19.42
2018-11-22T21:23:12.686Z,16.17
2018-11-22T21:25:41.771Z,18.37
2018-11-22T21:28:11.478Z,18.98
2018-11-22T21:30:41.605Z,15.65
2018-11-22T21:33:11.623Z,18.32
2018-11-22T21:35:40.785Z,15.98
2018-11-22T21:38:09.880Z,19.62
2018-11-22T21:40:39.115Z,16.87
2018-11-22T21:43:08.806Z,18.92
2018-11-22T21:45:39.386Z,13.20
2018-11-22T21:48:08.973Z,13.83
2018-11-22T21:50:38.071Z,18.12
2018-11-22T21:53:07.133Z,14.35
2018-11-22T21:55:36.422Z,13.70
2018-11-22T21:58:05.851Z,19.48
2018-11-22T22:00:38.671Z,15.38
2018-11-22T22:03:09.199Z,16.57
2018-11-22T22:05:39.067Z,14.75
2018-11-22T22:08:09.030Z,16.00
2018-11-22T22:10:38.812Z,15.03
2018-11-22T22:13:08.303Z,13.45
2018-11-22T22:15:38.813Z,16.27
2018-11-22T22:18:09.371Z,14.33
2018-11-22T22:20:38.825Z,11.53
2018-11-22T22:23:13.176Z,16.30
2018-11-22T22:25:38.788Z,14.25
2018-11-22T22:28:09.080Z,14.78
2018-11-22T22:30:39.143Z,13.48
2018-11-22T22:33:09.159Z,11.53
2018-11-22T22:35:38.312Z,13.40
2018-11-22T22:38:07.480Z,12.73
2018-11-22T22:40:36.750Z,12.25
2018-11-22T22:43:06.539Z,11.35
2018-11-22T22:45:35.731Z,14.20
2018-11-22T22:48:05.643Z,13.05
2018-11-22T22:50:34.951Z,11.05
2018-11-22T22:53:04.787Z,13.93
2018-11-22T22:55:34.505Z,13.55
2018-11-22T22:58:03.637Z,12.03
2018-11-22T23:00:41.843Z,13.83
2018-11-22T23:03:11.935Z,10.48
2018-11-22T23:05:41.646Z,11.22
2018-11-22T23:08:11.454Z,12.58
2018-11-22T23:10:40.583Z,12.93
2018-11-22T23:13:10.951Z,13.88
2018-11-22T23:15:40.339Z,10.32
2018-11-22T23:18:10.336Z,11.80
2018-11-22T23:20:41.254Z,11.90
2018-11-22T23:23:11.231Z,10.30
2018-11-22T23:25:40.784Z,14.05
2018-11-22T23:28:10.691Z,12.37
2018-11-22T23:30:40.276Z,14.00
2018-11-22T23:33:10.113Z,12.82
2018-11-22T23:35:39.227Z,12.37
2018-11-22T23:38:09.162Z,13.93
2018-11-22T23:40:38.440Z,11.70
2018-11-22T23:43:08.494Z,12.30
2018-11-22T23:45:37.749Z,13.55
2018-11-22T23:48:08.132Z,16.12
2018-11-22T23:50:37.959Z,18.20
2018-11-22T23:53:07.560Z,18.62
2018-11-22T23:55:36.667Z,16.15
2018-11-22T23:58:05.897Z,20.43
